createdAt,value
2022-08-03T00:00:24.075Z,4.97
2022-08-03T00:02:50.821Z,5.50
2022-08-03T00:05:17.579Z,5.20
2022-08-03T00:07:44.190Z,5.33
2022-08-03T00:10:11.307Z,5.70
2022-08-03T00:12:37.917Z,5.57
2022-08-03T00:15:05.766Z,5.90
2022-08-03T00:17:52.618Z,5.20
2022-08-03T00:20:22.080Z,5.50
2022-08-03T00:22:49.477Z,5.23
2022-08-03T00:25:19.169Z,5.37
2022-08-03T00:27:45.822Z,5.60
2022-08-03T00:30:15.217Z,5.60
2022-08-03T00:32:45.062Z,5.67
2022-08-03T00:35:32.511Z,5.57
2022-08-03T00:37:59.656Z,5.83
2022-08-03T00:40:26.540Z,5.13
2022-08-03T00:42:58.143Z,5.33
2022-08-03T00:45:27.344Z,5.80
2022-08-03T00:47:54.589Z,5.17
2022-08-03T00:50:22.984Z,5.70
2022-08-03T00:52:51.918Z,5.30
2022-08-03T00:55:18.753Z,5.40
2022-08-03T00:57:45.975Z,5.73
2022-08-03T01:00:14.945Z,5.40
2022-08-03T01:02:41.704Z,5.17
2022-08-03T01:05:09.932Z,5.40
2022-08-03T01:08:14.331Z,5.87
2022-08-03T01:10:51.716Z,5.13
2022-08-03T01:14:01.226Z,5.63
2022-08-03T01:16:35.686Z,5.37
2022-08-03T01:19:36.246Z,5.40
2022-08-03T01:22:40.064Z,5.17
2022-08-03T01:25:38.567Z,5.30
2022-08-03T01:28:33.219Z,5.70
2022-08-03T01:31:04.410Z,5.23
2022-08-03T01:33:37.542Z,5.70
2022-08-03T01:36:07.787Z,5.47
2022-08-03T01:38:36.911Z,5.90
2022-08-03T01:41:09.415Z,5.57
2022-08-03T01:44:26.792Z,5.37
2022-08-03T01:46:25.729Z,6.00
2022-08-03T01:48:53.873Z,5.20
2022-08-03T01:51:21.151Z,5.70
2022-08-03T01:53:51.203Z,5.90
2022-08-03T01:56:19.248Z,4.90
2022-08-03T01:58:46.632Z,6.00
2022-08-03T02:01:14.163Z,5.93
2022-08-03T02:04:00.540Z,5.47
2022-08-03T02:07:01.238Z,5.30
2022-08-03T02:09:17.719Z,6.20
2022-08-03T02:11:45.186Z,5.77
2022-08-03T02:14:11.894Z,5.33
2022-08-03T02:16:38.545Z,5.20
2022-08-03T02:19:06.674Z,5.23
2022-08-03T02:21:55.798Z,5.90
2022-08-03T02:24:22.939Z,6.10
2022-08-03T02:26:49.884Z,6.00
2022-08-03T02:29:21.056Z,5.70
2022-08-03T02:32:10.398Z,5.53
2022-08-03T02:34:37.913Z,5.07
2022-08-03T02:37:04.684Z,5.37
2022-08-03T02:39:35.319Z,5.57
2022-08-03T02:42:05.484Z,5.27
2022-08-03T02:44:33.763Z,5.30
2022-08-03T02:47:11.143Z,5.43
2022-08-03T02:49:50.650Z,5.17
2022-08-03T02:52:21.842Z,5.87
2022-08-03T02:54:49.651Z,5.53
2022-08-03T02:57:16.917Z,5.07
2022-08-03T02:59:44.269Z,5.27
2022-08-03T03:02:11.670Z,5.70
2022-08-03T03:04:38.835Z,4.87
2022-08-03T03:07:26.169Z,5.67
2022-08-03T03:09:56.379Z,5.87
2022-08-03T03:12:24.103Z,5.43
2022-08-03T03:14:50.764Z,5.40
2022-08-03T03:17:18.170Z,5.80
2022-08-03T03:19:45.608Z,4.90
2022-08-03T03:22:12.762Z,5.57
2022-08-03T03:24:39.947Z,6.07
2022-08-03T03:27:06.766Z,5.57
2022-08-03T03:29:39.306Z,5.53
2022-08-03T03:32:08.473Z,5.63
2022-08-03T03:34:36.758Z,5.67
2022-08-03T03:37:03.498Z,6.00
2022-08-03T03:39:30.153Z,6.10
2022-08-03T03:41:57.402Z,5.73
2022-08-03T03:44:28.962Z,6.10
2022-08-03T03:46:57.684Z,5.87
2022-08-03T03:49:24.736Z,5.77
2022-08-03T03:51:55.543Z,5.63
2022-08-03T03:54:22.231Z,6.20
2022-08-03T03:56:52.357Z,5.60
2022-08-03T03:59:19.066Z,5.43
2022-08-03T04:01:45.891Z,5.73
2022-08-03T04:04:31.229Z,5.80
2022-08-03T04:07:16.568Z,5.97
2022-08-03T04:10:14.514Z,6.30
2022-08-03T04:12:49.898Z,5.87
2022-08-03T04:15:20.074Z,5.93
2022-08-03T04:17:47.098Z,5.60
2022-08-03T04:20:14.191Z,5.87
2022-08-03T04:22:42.053Z,5.63
2022-08-03T04:25:18.087Z,5.77
2022-08-03T04:27:46.822Z,5.20
2022-08-03T04:30:33.863Z,4.90
2022-08-03T04:33:01.848Z,4.93
2022-08-03T04:36:00.908Z,5.03
2022-08-03T04:38:23.308Z,4.70
2022-08-03T04:40:50.160Z,4.57
2022-08-03T04:43:18.616Z,4.53
2022-08-03T04:45:47.331Z,4.30
2022-08-03T04:48:14.528Z,4.17
2022-08-03T04:50:41.676Z,4.27
2022-08-03T04:53:08.910Z,4.20
2022-08-03T04:55:36.544Z,3.90
2022-08-03T04:58:06.303Z,3.80
2022-08-03T05:00:32.922Z,3.50
2022-08-03T05:03:00.977Z,4.00
2022-08-03T05:05:34.656Z,3.70
2022-08-03T05:08:14.390Z,4.00
2022-08-03T05:10:41.146Z,3.87
2022-08-03T05:13:12.048Z,3.60
2022-08-03T05:15:43.276Z,4.10
2022-08-03T05:18:13.941Z,3.53
2022-08-03T05:20:41.596Z,3.73
2022-08-03T05:23:08.283Z,3.73
2022-08-03T05:25:37.210Z,3.30
2022-08-03T05:28:06.066Z,3.50
2022-08-03T05:30:34.102Z,3.20
2022-08-03T05:33:02.465Z,3.60
2022-08-03T05:35:55.908Z,3.40
2022-08-03T05:38:23.773Z,3.40
2022-08-03T05:40:56.751Z,3.13
2022-08-03T05:43:24.775Z,3.20
2022-08-03T05:46:11.581Z,3.10
2022-08-03T05:48:38.391Z,3.33
2022-08-03T05:51:07.464Z,3.40
2022-08-03T05:53:34.394Z,2.93
2022-08-03T05:56:14.553Z,3.37
2022-08-03T05:58:47.239Z,2.67
2022-08-03T06:01:15.421Z,2.90
2022-08-03T06:03:42.112Z,3.00
2022-08-03T06:06:08.775Z,2.97
2022-08-03T06:08:35.444Z,3.33
2022-08-03T06:11:02.179Z,3.13
2022-08-03T06:13:28.904Z,3.10
2022-08-03T06:15:55.635Z,2.80
2022-08-03T06:18:23.261Z,3.10
2022-08-03T06:20:50.781Z,2.80
2022-08-03T06:23:19.272Z,3.30
2022-08-03T06:25:46.137Z,3.40
2022-08-03T06:31:03.611Z,3.03
2022-08-03T06:34:30.045Z,3.50
2022-08-03T06:36:20.559Z,3.33
2022-08-03T06:38:47.225Z,3.30
2022-08-03T06:41:13.981Z,3.30
2022-08-03T06:44:03.289Z,3.73
2022-08-03T06:46:27.571Z,3.00
2022-08-03T06:48:55.640Z,3.37
2022-08-03T06:51:23.640Z,3.40
2022-08-03T06:54:10.885Z,3.47
2022-08-03T06:56:37.529Z,3.60
2022-08-03T06:59:06.444Z,2.83
2022-08-03T07:01:33.171Z,3.37
2022-08-03T07:04:00.582Z,3.77
2022-08-03T07:06:27.353Z,3.50
2022-08-03T07:08:58.945Z,3.20
2022-08-03T07:11:27.443Z,3.73
2022-08-03T07:14:01.476Z,3.87
2022-08-03T07:16:28.133Z,3.73
2022-08-03T07:18:54.761Z,4.00
2022-08-03T07:21:21.417Z,4.00
2022-08-03T07:23:49.979Z,4.40
2022-08-03T07:26:16.675Z,3.60
2022-08-03T07:28:43.661Z,3.80
2022-08-03T07:31:10.330Z,3.33
2022-08-03T07:33:37.045Z,3.67
2022-08-03T07:36:07.056Z,3.67
2022-08-03T07:38:36.134Z,4.00
2022-08-03T07:41:03.596Z,4.00
2022-08-03T07:43:30.384Z,3.70
2022-08-03T07:45:57.048Z,4.30
2022-08-03T07:48:23.747Z,3.97
2022-08-03T07:50:50.767Z,3.97
2022-08-03T07:53:17.412Z,3.87
2022-08-03T07:55:44.005Z,4.10
2022-08-03T07:58:16.519Z,4.20
2022-08-03T08:00:46.075Z,3.80
2022-08-03T08:03:13.335Z,3.70
2022-08-03T08:05:40.260Z,3.97
2022-08-03T08:08:07.301Z,4.03
2022-08-03T08:10:35.108Z,3.87
2022-08-03T08:13:02.735Z,3.60
2022-08-03T08:15:31.644Z,3.87
2022-08-03T08:18:00.174Z,3.50
2022-08-03T08:20:32.846Z,3.70
2022-08-03T08:23:19.963Z,3.20
2022-08-03T08:25:51.908Z,3.50
2022-08-03T08:28:31.636Z,3.00
2022-08-03T08:31:00.029Z,3.40
2022-08-03T08:33:37.673Z,3.37
2022-08-03T08:36:13.296Z,3.33
2022-08-03T08:38:42.675Z,3.37
2022-08-03T08:41:10.883Z,3.30
2022-08-03T08:43:37.723Z,3.27
2022-08-03T08:46:08.023Z,2.93
2022-08-03T08:48:36.159Z,2.70
2022-08-03T08:51:03.234Z,3.00
2022-08-03T08:53:30.248Z,2.83
2022-08-03T08:56:01.605Z,2.70
2022-08-03T08:58:38.971Z,2.87
2022-08-03T09:01:05.814Z,2.70
2022-08-03T09:03:36.134Z,2.70
2022-08-03T09:06:03.683Z,2.67
2022-08-03T09:08:31.643Z,2.57
2022-08-03T09:10:58.535Z,3.10
2022-08-03T09:13:25.537Z,2.70
2022-08-03T09:16:24.652Z,2.90
2022-08-03T09:18:53.402Z,2.80
2022-08-03T09:21:32.902Z,3.00
2022-08-03T09:24:04.742Z,2.50
2022-08-03T09:26:34.254Z,2.83
2022-08-03T09:29:14.606Z,2.60
2022-08-03T09:31:45.429Z,2.87
2022-08-03T09:34:14.759Z,2.80
2022-08-03T09:36:46.769Z,2.67
2022-08-03T09:39:18.515Z,2.60
2022-08-03T09:41:50.547Z,2.87
2022-08-03T09:44:24.868Z,3.27
2022-08-03T09:46:55.000Z,2.90
2022-08-03T09:49:21.804Z,2.90
2022-08-03T09:52:31.452Z,2.80
2022-08-03T09:54:35.506Z,2.43
2022-08-03T09:57:02.261Z,2.57
2022-08-03T09:59:30.705Z,2.37
2022-08-03T10:01:59.764Z,2.70
2022-08-03T10:04:26.648Z,2.33
2022-08-03T10:07:10.595Z,2.40
2022-08-03T10:09:37.830Z,2.93
2022-08-03T10:12:12.690Z,2.50
2022-08-03T10:14:41.795Z,2.70
2022-08-03T10:17:09.550Z,2.73
2022-08-03T10:19:36.539Z,2.50
2022-08-03T10:22:07.800Z,2.80
2022-08-03T10:24:37.529Z,2.60
2022-08-03T10:27:07.291Z,2.53
2022-08-03T10:29:47.449Z,2.70
2022-08-03T10:32:19.098Z,2.30
2022-08-03T10:34:46.828Z,2.90
2022-08-03T10:37:15.488Z,2.63
2022-08-03T10:39:53.543Z,3.10
2022-08-03T10:42:24.590Z,2.90
2022-08-03T10:45:03.579Z,2.63
2022-08-03T10:47:31.690Z,2.73
2022-08-03T10:50:03.022Z,3.37
2022-08-03T10:52:38.246Z,2.80
2022-08-03T10:55:58.734Z,2.53
2022-08-03T10:58:53.151Z,2.60
2022-08-03T11:02:00.634Z,2.70
2022-08-03T11:04:29.832Z,2.77
2022-08-03T11:07:22.937Z,2.93
2022-08-03T11:09:54.529Z,2.60
2022-08-03T11:12:39.510Z,2.70
2022-08-03T11:15:08.699Z,2.97
2022-08-03T11:17:46.582Z,2.60
2022-08-03T11:20:54.858Z,2.20
2022-08-03T11:24:03.150Z,2.40
2022-08-03T11:26:33.004Z,2.67
2022-08-03T11:29:27.384Z,2.40
2022-08-03T11:31:54.110Z,2.70
2022-08-03T11:34:20.869Z,3.17
2022-08-03T11:37:21.681Z,3.50
2022-08-03T11:39:50.920Z,4.20
2022-08-03T11:42:27.095Z,3.00
2022-08-03T11:44:57.854Z,2.87
2022-08-03T11:47:29.001Z,3.60
2022-08-03T11:50:00.487Z,2.53
2022-08-03T11:52:37.961Z,2.53
2022-08-03T11:55:10.156Z,3.03
2022-08-03T11:59:10.719Z,4.90
2022-08-03T12:00:31.284Z,2.60
2022-08-03T12:03:11.152Z,2.50
2022-08-03T12:05:41.070Z,6.67
2022-08-03T12:08:10.313Z,3.60
2022-08-03T12:10:38.064Z,2.80
2022-08-03T12:14:33.013Z,3.17
2022-08-03T12:15:59.214Z,2.73
2022-08-03T12:18:26.379Z,3.00
2022-08-03T12:20:54.280Z,2.40
2022-08-03T12:23:20.924Z,2.50
2022-08-03T12:25:49.669Z,2.50
2022-08-03T12:28:36.561Z,2.37
2022-08-03T12:31:07.422Z,2.50
2022-08-03T12:34:02.380Z,2.90
2022-08-03T12:36:30.841Z,2.90
2022-08-03T12:39:06.085Z,2.10
2022-08-03T12:41:35.359Z,2.47
2022-08-03T12:44:06.448Z,2.53
2022-08-03T12:46:46.986Z,2.60
2022-08-03T12:49:17.077Z,2.83
2022-08-03T12:51:43.696Z,3.20
2022-08-03T12:54:16.795Z,4.57
2022-08-03T12:57:06.126Z,3.43
2022-08-03T12:59:40.806Z,2.63
2022-08-03T13:02:23.707Z,2.50
2022-08-03T13:04:52.070Z,3.87
2022-08-03T13:07:20.102Z,4.20
2022-08-03T13:09:55.891Z,2.80
2022-08-03T13:12:24.469Z,2.70
2022-08-03T13:14:52.779Z,2.70
2022-08-03T13:17:20.161Z,2.77
2022-08-03T13:19:47.795Z,3.10
2022-08-03T13:22:21.853Z,3.23
2022-08-03T13:24:50.410Z,2.87
2022-08-03T13:28:01.165Z,2.40
2022-08-03T13:30:07.749Z,2.63
2022-08-03T13:32:34.974Z,3.10
2022-08-03T13:35:03.088Z,2.83
2022-08-03T13:37:32.101Z,2.90
2022-08-03T13:40:04.503Z,2.60
2022-08-03T13:42:34.539Z,2.60
2022-08-03T13:45:01.525Z,3.30
2022-08-03T13:47:28.303Z,3.80
2022-08-03T13:50:01.258Z,5.33
2022-08-03T13:52:33.582Z,4.23
2022-08-03T13:55:01.167Z,2.80
2022-08-03T13:58:02.971Z,3.60
2022-08-03T14:00:26.285Z,3.47
2022-08-03T14:03:13.813Z,2.70
2022-08-03T14:05:41.243Z,3.33
2022-08-03T14:08:08.607Z,3.30
2022-08-03T14:10:40.620Z,4.50
2022-08-03T14:13:10.013Z,3.00
2022-08-03T14:15:37.991Z,3.37
2022-08-03T14:18:12.998Z,3.47
2022-08-03T14:20:49.022Z,3.30
2022-08-03T14:23:20.084Z,3.00
2022-08-03T14:25:51.756Z,3.40
2022-08-03T14:28:21.111Z,3.10
2022-08-03T14:30:52.648Z,3.60
2022-08-03T14:33:19.924Z,3.87
2022-08-03T14:35:46.675Z,3.43
2022-08-03T14:38:13.679Z,2.70
2022-08-03T14:40:40.355Z,3.30
2022-08-03T14:43:08.632Z,3.60
2022-08-03T14:45:35.389Z,3.10
2022-08-03T14:50:31.971Z,2.93
2022-08-03T14:50:51.604Z,4.40
2022-08-03T14:53:19.327Z,3.50
2022-08-03T14:55:55.285Z,4.10
2022-08-03T14:58:23.828Z,2.80
2022-08-03T15:00:51.518Z,2.83
2022-08-03T15:03:25.514Z,3.80
2022-08-03T15:05:53.698Z,2.77
2022-08-03T15:08:21.253Z,2.87
2022-08-03T15:10:51.415Z,3.30
2022-08-03T15:13:21.827Z,3.03
2022-08-03T15:15:52.002Z,2.60
2022-08-03T15:18:20.100Z,3.13
2022-08-03T15:20:53.299Z,2.93
2022-08-03T15:23:22.635Z,2.90
2022-08-03T15:26:29.083Z,2.70
2022-08-03T15:28:38.319Z,2.90
2022-08-03T15:31:06.220Z,2.70
2022-08-03T15:33:32.901Z,3.93
2022-08-03T15:36:01.980Z,2.43
2022-08-03T15:38:35.889Z,3.20
2022-08-03T15:41:02.649Z,3.70
2022-08-03T15:43:29.304Z,2.83
2022-08-03T15:46:26.637Z,3.00
2022-08-03T15:48:42.842Z,3.00
2022-08-03T15:51:10.064Z,2.90
2022-08-03T15:53:37.248Z,7.53
2022-08-03T15:56:09.832Z,3.57
2022-08-03T15:59:09.156Z,3.37
2022-08-03T16:01:26.340Z,3.80
2022-08-03T16:03:53.083Z,4.70
2022-08-03T16:06:29.378Z,3.57
2022-08-03T16:09:01.699Z,3.50
2022-08-03T16:11:28.630Z,3.87
2022-08-03T16:14:13.002Z,4.03
2022-08-03T16:16:43.257Z,4.00
2022-08-03T16:19:20.481Z,4.30
2022-08-03T16:21:48.464Z,4.00
2022-08-03T16:24:27.716Z,4.07
2022-08-03T16:26:55.326Z,4.80
2022-08-03T16:29:23.273Z,5.03
2022-08-03T16:31:53.487Z,4.40
2022-08-03T16:34:21.037Z,4.33
2022-08-03T16:36:47.829Z,4.20
2022-08-03T16:39:14.519Z,4.13
2022-08-03T16:41:54.347Z,4.57
2022-08-03T16:44:30.929Z,4.93
2022-08-03T16:46:59.515Z,4.20
2022-08-03T16:49:54.245Z,4.23
2022-08-03T16:52:13.305Z,3.93
2022-08-03T16:54:40.205Z,3.87
2022-08-03T16:57:07.302Z,3.00
2022-08-03T16:59:36.396Z,3.40
2022-08-03T17:02:09.989Z,5.50
2022-08-03T17:04:37.238Z,4.60
2022-08-03T17:07:07.823Z,4.30
2022-08-03T17:09:38.703Z,3.30
2022-08-03T17:12:06.346Z,4.03
2022-08-03T17:14:33.978Z,3.70
2022-08-03T17:17:04.592Z,4.60
2022-08-03T17:19:40.654Z,3.23
2022-08-03T17:22:18.042Z,3.33
2022-08-03T17:24:47.343Z,3.27
2022-08-03T17:28:41.743Z,3.53
2022-08-03T17:30:11.883Z,2.90
2022-08-03T17:32:42.998Z,3.33
2022-08-03T17:35:23.511Z,4.40
2022-08-03T17:37:57.996Z,4.50
2022-08-03T17:40:31.690Z,3.33
2022-08-03T17:42:59.908Z,2.57
2022-08-03T17:45:51.929Z,2.73
2022-08-03T17:48:18.524Z,2.43
2022-08-03T17:50:54.227Z,3.30
2022-08-03T17:53:28.649Z,2.90
2022-08-03T17:56:09.157Z,2.97
2022-08-03T17:59:10.655Z,3.87
2022-08-03T18:02:26.474Z,3.90
2022-08-03T18:05:16.569Z,2.93
2022-08-03T18:07:59.229Z,2.57
2022-08-03T18:10:28.504Z,3.13
2022-08-03T18:13:03.882Z,2.90
2022-08-03T18:15:47.425Z,3.00
2022-08-03T18:18:16.721Z,3.07
2022-08-03T18:21:04.485Z,2.80
2022-08-03T18:23:36.801Z,2.77
2022-08-03T18:26:07.322Z,2.70
2022-08-03T18:28:43.441Z,2.60
2022-08-03T18:31:11.989Z,2.80
2022-08-03T18:34:32.526Z,2.40
2022-08-03T18:36:29.914Z,2.60
2022-08-03T18:39:01.718Z,2.57
2022-08-03T18:41:32.246Z,2.50
2022-08-03T18:44:07.845Z,2.53
2022-08-03T18:47:07.321Z,2.90
2022-08-03T18:50:21.142Z,2.30
2022-08-03T18:53:05.439Z,2.77
2022-08-03T18:56:07.497Z,2.60
2022-08-03T18:58:46.528Z,2.50
2022-08-03T19:02:00.108Z,2.97
2022-08-03T19:04:41.081Z,3.10
2022-08-03T19:07:09.489Z,3.00
2022-08-03T19:09:47.607Z,2.80
2022-08-03T19:12:30.789Z,2.90
2022-08-03T19:15:05.874Z,3.50
2022-08-03T19:17:52.794Z,3.47
2022-08-03T19:20:25.833Z,3.13
2022-08-03T19:22:54.292Z,3.27
2022-08-03T19:25:35.160Z,2.80
2022-08-03T19:28:08.611Z,2.90
2022-08-03T19:30:38.861Z,2.93
2022-08-03T19:33:13.635Z,3.30
2022-08-03T19:35:51.562Z,3.30
2022-08-03T19:38:27.655Z,3.00
2022-08-03T19:41:02.203Z,2.87
2022-08-03T19:43:53.210Z,3.10
2022-08-03T19:46:21.968Z,3.00
2022-08-03T19:48:56.169Z,3.23
2022-08-03T19:51:52.608Z,2.90
2022-08-03T19:54:15.182Z,3.00
2022-08-03T19:56:46.253Z,2.97
2022-08-03T19:59:19.470Z,2.97
2022-08-03T20:01:50.830Z,3.03
2022-08-03T20:04:20.629Z,3.07
2022-08-03T20:06:49.644Z,3.23
2022-08-03T20:09:17.381Z,2.97
2022-08-03T20:14:31.167Z,2.90
2022-08-03T20:16:58.625Z,2.80
2022-08-03T20:19:25.268Z,3.53
2022-08-03T20:22:01.916Z,2.80
2022-08-03T20:24:34.511Z,3.00
2022-08-03T20:27:03.781Z,2.97
2022-08-03T20:30:05.011Z,3.33
2022-08-03T20:32:28.101Z,2.70
2022-08-03T20:34:54.850Z,2.93
2022-08-03T20:37:22.165Z,3.00
2022-08-03T20:39:56.889Z,3.00
2022-08-03T20:42:23.821Z,2.90
2022-08-03T20:45:04.333Z,2.60
2022-08-03T20:47:35.554Z,3.00
2022-08-03T20:50:07.544Z,2.77
2022-08-03T20:52:53.234Z,3.10
2022-08-03T20:55:20.281Z,2.80
2022-08-03T20:57:49.094Z,2.90
2022-08-03T21:00:21.515Z,3.00
2022-08-03T21:02:49.118Z,3.00
2022-08-03T21:05:15.816Z,2.80
2022-08-03T21:08:05.288Z,2.83
2022-08-03T21:10:38.422Z,3.00
2022-08-03T21:13:11.193Z,2.83
2022-08-03T21:13:17.150Z,3.13
2022-08-03T21:16:05.453Z,3.00
2022-08-03T21:18:49.153Z,3.43
2022-08-03T21:21:18.698Z,3.20
2022-08-03T21:23:52.550Z,2.80
2022-08-03T21:26:22.158Z,2.83
2022-08-03T21:28:51.006Z,3.13
2022-08-03T21:31:24.554Z,2.97
2022-08-03T21:33:56.675Z,3.07
2022-08-03T21:36:25.767Z,3.00
2022-08-03T21:38:55.825Z,2.80
2022-08-03T21:41:23.852Z,3.30
2022-08-03T21:43:50.517Z,3.03
2022-08-03T21:46:18.910Z,2.60
2022-08-03T21:48:48.270Z,2.80
2022-08-03T21:51:17.312Z,2.73
2022-08-03T21:54:00.278Z,2.83
2022-08-03T21:56:42.343Z,2.53
2022-08-03T21:59:18.474Z,2.77
2022-08-03T22:01:49.397Z,3.00
2022-08-03T22:04:53.486Z,2.93
2022-08-03T22:07:07.865Z,3.47
2022-08-03T22:09:35.599Z,3.87
2022-08-03T22:12:02.215Z,3.00
2022-08-03T22:14:29.545Z,3.23
2022-08-03T22:16:56.698Z,2.90
2022-08-03T22:19:23.389Z,3.67
2022-08-03T22:21:50.194Z,3.87
2022-08-03T22:24:19.677Z,3.10
2022-08-03T22:27:09.707Z,3.47
2022-08-03T22:29:36.910Z,3.63
2022-08-03T22:32:03.780Z,3.60
2022-08-03T22:34:30.549Z,3.70
2022-08-03T22:37:01.139Z,3.67
2022-08-03T22:39:30.650Z,3.40
2022-08-03T22:41:59.034Z,3.33
2022-08-03T22:44:27.253Z,3.57
2022-08-03T22:46:54.020Z,3.90
2022-08-03T22:49:22.937Z,3.67
2022-08-03T22:51:51.993Z,4.00
2022-08-03T22:54:18.919Z,3.40
2022-08-03T22:56:49.899Z,3.53
2022-08-03T22:59:40.145Z,3.83
2022-08-03T23:02:20.322Z,3.80
2022-08-03T23:04:53.367Z,3.87
2022-08-03T23:07:22.582Z,3.63
2022-08-03T23:09:49.517Z,3.80
2022-08-03T23:12:20.119Z,3.60
2022-08-03T23:14:55.054Z,3.73
2022-08-03T23:17:23.075Z,4.10
2022-08-03T23:19:54.024Z,4.13
2022-08-03T23:22:30.212Z,3.70
2022-08-03T23:25:01.375Z,3.63
2022-08-03T23:27:28.095Z,3.70
2022-08-03T23:29:56.766Z,4.00
2022-08-03T23:32:25.646Z,4.50
2022-08-03T23:35:16.902Z,3.90
2022-08-03T23:38:04.830Z,3.40
2022-08-03T23:40:31.706Z,4.10
2022-08-03T23:42:58.604Z,4.37
2022-08-03T23:45:29.100Z,3.87
2022-08-03T23:47:55.825Z,4.97
2022-08-03T23:50:22.725Z,4.40
2022-08-03T23:53:16.771Z,4.40
2022-08-03T23:56:01.891Z,4.30
2022-08-03T23:58:34.787Z,4.30
